Centennial, WY (82055)

12:26 AM MDT on August 26, 2016 (GMT -0600)
West of Centennial WY | | Change Station

Elev 8274 ft 41.30 °N, 106.15 °W | Updated 34 seconds ago

Partly Cloudy
Partly Cloudy
46.4 °F
Feels Like 46 °F
N
0.2
Wind Variable Wind from WNW
Gusts 2.5 mph

Today
High -- | Low -- °F
--% Chance of Precip.
Yesterday
High -- | Low -- °F
Precip. -- in
Pressure 30.00 in
Visibility 10.0 miles
Clouds Few 8000 ft
Windchill 46 °F
Dew Point 40 °F
Humidity 79%
Rainfall 0.00 in
Snow Depth Not available.
6:25 AM 7:46 PM
Last Quarter, 38% visible
METAR KLAR 260553Z AUTO 14008KT 10SM FEW080 10/06 A3026 RMK AO2 SLP159 T01000056 10167 20094 50001 TSNO
Pressure 30.00 in
Visibility 10.0 miles
Clouds Few 8000 ft
Windchill 46 °F
Dew Point 40 °F
Humidity 79%
Rainfall 0.00 in
Snow Depth Not available.
6:25 AM 7:46 PM
Last Quarter, 38% visible
METAR KLAR 260553Z AUTO 14008KT 10SM FEW080 10/06 A3026 RMK AO2 SLP159 T01000056 10167 20094 50001 TSNO

10-Day Weather Forecast

Almanac

Astronomy

Aug. 26, 2016 Rise Set
Actual Time
Civil Twilight
Nautical Twilight
Astronomical Twilight
Moon
Length of Visible Light
Length of Day
Tomorrow will be .
, % of the Moon is Illuminated

Today's Extremes

State Highs State Lows

Community

WunderPhotos

Upload Photos

1,935,058 photos uploaded!

WunderBlog® & News

Nearby

Air Quality

  Air Quality AQ Index Pollutant
Not available.

Snow Depth

Station Depth Elevation

Earthquake Activity

City Distance Mag. Time & Date
Minimum magnitude displayed is 2.5.

Coastal Water Temperatures

Place Temperature

Stations

Nearby Weather Stations

Station Location Temp. Windchill Dew Point Humidity Wind Precip. Elev Updated Type
                   

Watches & Warnings

There are currently no watches in effect.